sensor_id;sensor_type;location;lat;lon;timestamp;temperature;humidity
22838;DHT22;11585;51.450;-0.240;2023-11-21T08:40:04;11.80;99.90
22838;DHT22;11585;51.450;-0.240;2023-11-21T08:42:35;11.80;99.90
22838;DHT22;11585;51.450;-0.240;2023-11-21T08:45:00;11.80;99.90
22838;DHT22;11585;51.450;-0.240;2023-11-21T08:47:26;11.80;99.90
22838;DHT22;11585;51.450;-0.240;2023-11-21T08:49:53;11.80;99.90
22838;DHT22;11585;51.450;-0.240;2023-11-21T08:52:19;11.80;99.90
22838;DHT22;11585;51.450;-0.240;2023-11-21T08:54:49;11.80;99.90
22838;DHT22;11585;51.450;-0.240;2023-11-21T08:57:22;12.10;99.90
22838;DHT22;11585;51.450;-0.240;2023-11-21T08:59:48;11.90;99.90
22838;DHT22;11585;51.450;-0.240;2023-11-21T09:02:13;11.80;99.90
22838;DHT22;11585;51.450;-0.240;2023-11-21T09:04:39;11.80;99.90
22838;DHT22;11585;51.450;-0.240;2023-11-21T09:07:04;11.80;99.90
22838;DHT22;11585;51.450;-0.240;2023-11-21T09:09:30;11.90;99.90
22838;DHT22;11585;51.450;-0.240;2023-11-21T09:11:56;11.80;99.90
22838;DHT22;11585;51.450;-0.240;2023-11-21T09:14:22;11.80;99.90
22838;DHT22;11585;51.450;-0.240;2023-11-21T09:16:48;11.90;99.90
22838;DHT22;11585;51.450;-0.240;2023-11-21T09:19:15;11.90;99.90
22838;DHT22;11585;51.450;-0.240;2023-11-21T09:21:41;12.00;99.90
22838;DHT22;11585;51.450;-0.240;2023-11-21T09:24:07;11.80;99.90
22838;DHT22;11585;51.450;-0.240;2023-11-21T09:26:34;11.90;99.90
22838;DHT22;11585;51.450;-0.240;2023-11-21T09:29:00;11.90;99.90
22838;DHT22;11585;51.450;-0.240;2023-11-21T09:31:27;11.80;99.90
22838;DHT22;11585;51.450;-0.240;2023-11-21T09:33:53;11.90;99.90
22838;DHT22;11585;51.450;-0.240;2023-11-21T09:36:18;11.80;99.90
22838;DHT22;11585;51.450;-0.240;2023-11-21T09:38:44;11.80;99.90
22838;DHT22;11585;51.450;-0.240;2023-11-21T09:41:23;11.90;99.90
22838;DHT22;11585;51.450;-0.240;2023-11-21T09:43:54;11.80;99.90
22838;DHT22;11585;51.450;-0.240;2023-11-21T09:46:23;11.80;99.90
22838;DHT22;11585;51.450;-0.240;2023-11-21T09:48:52;11.90;99.90
22838;DHT22;11585;51.450;-0.240;2023-11-21T09:51:19;11.80;99.90
22838;DHT22;11585;51.450;-0.240;2023-11-21T09:53:50;11.80;99.90
22838;DHT22;11585;51.450;-0.240;2023-11-21T09:56:17;11.90;99.90
22838;DHT22;11585;51.450;-0.240;2023-11-21T09:58:54;11.70;99.90
22838;DHT22;11585;51.450;-0.240;2023-11-21T10:01:22;11.90;99.90
22838;DHT22;11585;51.450;-0.240;2023-11-21T10:03:49;11.90;99.90
22838;DHT22;11585;51.450;-0.240;2023-11-21T10:06:16;11.90;99.90
22838;DHT22;11585;51.450;-0.240;2023-11-21T10:08:43;11.90;99.90
22838;DHT22;11585;51.450;-0.240;2023-11-21T10:11:10;11.90;99.90
22838;DHT22;11585;51.450;-0.240;2023-11-21T10:13:38;11.90;99.90
22838;DHT22;11585;51.450;-0.240;2023-11-21T10:16:05;11.90;99.90
22838;DHT22;11585;51.450;-0.240;2023-11-21T10:18:33;11.90;99.90
22838;DHT22;11585;51.450;-0.240;2023-11-21T10:21:00;12.00;99.90
22838;DHT22;11585;51.450;-0.240;2023-11-21T10:23:27;11.90;99.90
22838;DHT22;11585;51.450;-0.240;2023-11-21T10:25:53;11.80;99.90
22838;DHT22;11585;51.450;-0.240;2023-11-21T10:28:22;11.90;99.90
22838;DHT22;11585;51.450;-0.240;2023-11-21T10:30:48;11.90;99.90
22838;DHT22;11585;51.450;-0.240;2023-11-21T10:33:13;11.90;99.90
22838;DHT22;11585;51.450;-0.240;2023-11-21T10:35:42;11.90;99.90
22838;DHT22;11585;51.450;-0.240;2023-11-21T10:38:13;11.90;99.90
22838;DHT22;11585;51.450;-0.240;2023-11-21T10:40:40;11.90;99.90
22838;DHT22;11585;51.450;-0.240;2023-11-21T10:43:08;11.90;99.90
22838;DHT22;11585;51.450;-0.240;2023-11-21T10:45:36;11.90;99.90
22838;DHT22;11585;51.450;-0.240;2023-11-21T10:48:06;11.90;99.90
22838;DHT22;11585;51.450;-0.240;2023-11-21T10:50:34;11.90;99.90
22838;DHT22;11585;51.450;-0.240;2023-11-21T10:53:02;11.90;99.90
22838;DHT22;11585;51.450;-0.240;2023-11-21T10:55:29;12.00;99.90
22838;DHT22;11585;51.450;-0.240;2023-11-21T10:58:01;12.00;99.90
22838;DHT22;11585;51.450;-0.240;2023-11-21T11:00:29;12.00;99.90
22838;DHT22;11585;51.450;-0.240;2023-11-21T11:02:55;11.90;99.90
22838;DHT22;11585;51.450;-0.240;2023-11-21T11:05:25;12.00;99.90
22838;DHT22;11585;51.450;-0.240;2023-11-21T11:07:53;12.00;99.90
22838;DHT22;11585;51.450;-0.240;2023-11-21T11:10:26;12.00;99.90
22838;DHT22;11585;51.450;-0.240;2023-11-21T11:12:53;12.00;99.90
22838;DHT22;11585;51.450;-0.240;2023-11-21T11:15:20;12.00;99.90
22838;DHT22;11585;51.450;-0.240;2023-11-21T11:17:46;11.90;99.90
22838;DHT22;11585;51.450;-0.240;2023-11-21T11:20:14;12.00;99.90
22838;DHT22;11585;51.450;-0.240;2023-11-21T11:22:43;12.00;99.90
22838;DHT22;11585;51.450;-0.240;2023-11-21T11:27:54;12.00;99.90
22838;DHT22;11585;51.450;-0.240;2023-11-21T11:33:39;12.00;99.90
22838;DHT22;11585;51.450;-0.240;2023-11-21T11:36:22;12.00;99.90
22838;DHT22;11585;51.450;-0.240;2023-11-21T11:38:52;12.10;99.90
22838;DHT22;11585;51.450;-0.240;2023-11-21T11:41:30;12.10;99.90
22838;DHT22;11585;51.450;-0.240;2023-11-21T11:43:58;12.10;99.90
22838;DHT22;11585;51.450;-0.240;2023-11-21T11:46:44;12.00;99.90
22838;DHT22;11585;51.450;-0.240;2023-11-21T11:49:27;12.10;99.90
22838;DHT22;11585;51.450;-0.240;2023-11-21T11:55:00;12.10;99.90
22838;DHT22;11585;51.450;-0.240;2023-11-21T11:57:33;12.10;99.90
22838;DHT22;11585;51.450;-0.240;2023-11-21T12:02:57;12.10;99.90
22838;DHT22;11585;51.450;-0.240;2023-11-21T12:05:25;12.10;99.90
22838;DHT22;11585;51.450;-0.240;2023-11-21T12:07:57;12.10;99.90
22838;DHT22;11585;51.450;-0.240;2023-11-21T12:10:35;12.20;99.90
22838;DHT22;11585;51.450;-0.240;2023-11-21T12:13:05;12.20;99.90
22838;DHT22;11585;51.450;-0.240;2023-11-21T12:15:43;12.20;99.90
22838;DHT22;11585;51.450;-0.240;2023-11-21T12:18:11;12.20;99.90
22838;DHT22;11585;51.450;-0.240;2023-11-21T12:20:45;12.10;99.90
22838;DHT22;11585;51.450;-0.240;2023-11-21T12:23:14;12.20;99.90
22838;DHT22;11585;51.450;-0.240;2023-11-21T12:25:40;12.30;99.90
22838;DHT22;11585;51.450;-0.240;2023-11-21T12:28:07;12.20;99.90
22838;DHT22;11585;51.450;-0.240;2023-11-21T12:30:35;12.20;99.90
22838;DHT22;11585;51.450;-0.240;2023-11-21T12:33:02;12.20;99.90
22838;DHT22;11585;51.450;-0.240;2023-11-21T12:35:31;13.00;99.90
22838;DHT22;11585;51.450;-0.240;2023-11-21T12:37:59;12.20;99.90
22838;DHT22;11585;51.450;-0.240;2023-11-21T12:40:25;12.20;99.90
22838;DHT22;11585;51.450;-0.240;2023-11-21T12:42:56;12.20;99.90
22838;DHT22;11585;51.450;-0.240;2023-11-21T12:45:23;12.20;99.90
22838;DHT22;11585;51.450;-0.240;2023-11-21T12:47:58;12.20;99.90
22838;DHT22;11585;51.450;-0.240;2023-11-21T12:50:26;12.30;99.90
22838;DHT22;11585;51.450;-0.240;2023-11-21T12:53:01;12.20;99.90
22838;DHT22;11585;51.450;-0.240;2023-11-21T12:55:30;12.30;99.90
22838;DHT22;11585;51.450;-0.240;2023-11-21T12:57:56;12.30;99.90
22838;DHT22;11585;51.450;-0.240;2023-11-21T13:00:34;12.20;99.90
22838;DHT22;11585;51.450;-0.240;2023-11-21T13:03:03;12.30;99.90
22838;DHT22;11585;51.450;-0.240;2023-11-21T13:05:32;12.30;99.90
22838;DHT22;11585;51.450;-0.240;2023-11-21T13:08:01;12.30;99.90
22838;DHT22;11585;51.450;-0.240;2023-11-21T13:10:36;12.30;99.90
22838;DHT22;11585;51.450;-0.240;2023-11-21T13:13:05;12.40;99.90
22838;DHT22;11585;51.450;-0.240;2023-11-21T13:15:38;12.30;99.90
22838;DHT22;11585;51.450;-0.240;2023-11-21T13:18:04;12.40;99.90
22838;DHT22;11585;51.450;-0.240;2023-11-21T13:20:36;12.30;99.90
22838;DHT22;11585;51.450;-0.240;2023-11-21T13:23:07;12.40;99.90
22838;DHT22;11585;51.450;-0.240;2023-11-21T13:25:46;12.40;99.90
22838;DHT22;11585;51.450;-0.240;2023-11-21T13:28:16;12.40;99.90
22838;DHT22;11585;51.450;-0.240;2023-11-21T13:30:49;12.50;99.90
22838;DHT22;11585;51.450;-0.240;2023-11-21T13:33:26;12.30;99.90
22838;DHT22;11585;51.450;-0.240;2023-11-21T13:35:53;12.50;99.90
22838;DHT22;11585;51.450;-0.240;2023-11-21T13:38:22;12.30;99.90
22838;DHT22;11585;51.450;-0.240;2023-11-21T13:40:52;12.40;99.90
22838;DHT22;11585;51.450;-0.240;2023-11-21T13:43:20;12.40;99.90
22838;DHT22;11585;51.450;-0.240;2023-11-21T13:45:48;12.40;99.90
22838;DHT22;11585;51.450;-0.240;2023-11-21T13:48:25;12.40;99.90
22838;DHT22;11585;51.450;-0.240;2023-11-21T13:50:57;12.40;99.90
22838;DHT22;11585;51.450;-0.240;2023-11-21T13:53:46;12.50;99.90
22838;DHT22;11585;51.450;-0.240;2023-11-21T13:56:18;12.50;99.90
22838;DHT22;11585;51.450;-0.240;2023-11-21T13:58:53;12.40;99.90
22838;DHT22;11585;51.450;-0.240;2023-11-21T14:01:21;12.40;99.90
22838;DHT22;11585;51.450;-0.240;2023-11-21T14:04:00;12.40;99.90
22838;DHT22;11585;51.450;-0.240;2023-11-21T14:06:46;12.40;99.90
22838;DHT22;11585;51.450;-0.240;2023-11-21T14:09:40;12.40;99.90
22838;DHT22;11585;51.450;-0.240;2023-11-21T14:12:09;12.40;99.90
22838;DHT22;11585;51.450;-0.240;2023-11-21T14:14:37;12.40;99.90
22838;DHT22;11585;51.450;-0.240;2023-11-21T14:17:04;12.40;99.90
22838;DHT22;11585;51.450;-0.240;2023-11-21T14:19:32;12.40;99.90
22838;DHT22;11585;51.450;-0.240;2023-11-21T14:21:59;12.40;99.90
22838;DHT22;11585;51.450;-0.240;2023-11-21T14:24:26;12.40;99.90
22838;DHT22;11585;51.450;-0.240;2023-11-21T14:26:51;12.40;99.90
22838;DHT22;11585;51.450;-0.240;2023-11-21T14:29:19;12.40;99.90
22838;DHT22;11585;51.450;-0.240;2023-11-21T14:31:49;12.40;99.90
22838;DHT22;11585;51.450;-0.240;2023-11-21T14:34:16;12.40;99.90
22838;DHT22;11585;51.450;-0.240;2023-11-21T14:36:43;12.50;99.90
22838;DHT22;11585;51.450;-0.240;2023-11-21T14:39:10;12.40;99.90
22838;DHT22;11585;51.450;-0.240;2023-11-21T14:41:48;12.40;99.90
22838;DHT22;11585;51.450;-0.240;2023-11-21T14:44:14;12.30;99.90
22838;DHT22;11585;51.450;-0.240;2023-11-21T14:46:40;12.40;99.90
22838;DHT22;11585;51.450;-0.240;2023-11-21T14:49:11;12.40;99.90
22838;DHT22;11585;51.450;-0.240;2023-11-21T14:51:53;12.40;99.90
22838;DHT22;11585;51.450;-0.240;2023-11-21T14:54:29;12.30;99.90
22838;DHT22;11585;51.450;-0.240;2023-11-21T14:57:14;12.30;99.90
22838;DHT22;11585;51.450;-0.240;2023-11-21T14:59:46;12.40;99.90
22838;DHT22;11585;51.450;-0.240;2023-11-21T15:02:14;12.40;99.90
22838;DHT22;11585;51.450;-0.240;2023-11-21T15:04:44;12.30;99.90
22838;DHT22;11585;51.450;-0.240;2023-11-21T15:07:10;12.80;99.90
22838;DHT22;11585;51.450;-0.240;2023-11-21T15:09:39;12.30;99.90
22838;DHT22;11585;51.450;-0.240;2023-11-21T15:12:09;12.30;99.90
22838;DHT22;11585;51.450;-0.240;2023-11-21T15:17:09;12.30;99.90
22838;DHT22;11585;51.450;-0.240;2023-11-21T15:19:35;12.30;99.90
22838;DHT22;11585;51.450;-0.240;2023-11-21T15:22:02;12.20;99.90
22838;DHT22;11585;51.450;-0.240;2023-11-21T15:24:28;11.20;99.90
22838;DHT22;11585;51.450;-0.240;2023-11-21T15:26:53;12.60;99.90
22838;DHT22;11585;51.450;-0.240;2023-11-21T15:32:09;12.20;99.90
22838;DHT22;11585;51.450;-0.240;2023-11-21T15:34:36;12.20;99.90
22838;DHT22;11585;51.450;-0.240;2023-11-21T15:37:02;12.20;99.90
22838;DHT22;11585;51.450;-0.240;2023-11-21T15:39:28;12.20;99.90
22838;DHT22;11585;51.450;-0.240;2023-11-21T15:41:59;12.20;99.90
22838;DHT22;11585;51.450;-0.240;2023-11-21T15:44:28;12.20;99.90
22838;DHT22;11585;51.450;-0.240;2023-11-21T15:46:55;12.30;99.90
22838;DHT22;11585;51.450;-0.240;2023-11-21T15:52:11;12.20;99.90
22838;DHT22;11585;51.450;-0.240;2023-11-21T15:54:38;12.20;99.90
22838;DHT22;11585;51.450;-0.240;2023-11-21T15:57:04;12.20;99.90
22838;DHT22;11585;51.450;-0.240;2023-11-21T15:59:32;12.20;99.90
22838;DHT22;11585;51.450;-0.240;2023-11-21T16:02:02;12.20;99.90
22838;DHT22;11585;51.450;-0.240;2023-11-21T16:04:30;12.20;99.90
22838;DHT22;11585;51.450;-0.240;2023-11-21T16:06:56;12.20;99.90
22838;DHT22;11585;51.450;-0.240;2023-11-21T16:09:25;12.10;99.90
22838;DHT22;11585;51.450;-0.240;2023-11-21T16:12:01;12.10;99.90
22838;DHT22;11585;51.450;-0.240;2023-11-21T16:14:32;12.10;99.90
22838;DHT22;11585;51.450;-0.240;2023-11-21T16:17:02;12.10;99.90
22838;DHT22;11585;51.450;-0.240;2023-11-21T16:19:28;12.10;99.90
22838;DHT22;11585;51.450;-0.240;2023-11-21T16:21:54;12.10;99.90
22838;DHT22;11585;51.450;-0.240;2023-11-21T16:24:20;11.60;99.90
22838;DHT22;11585;51.450;-0.240;2023-11-21T16:26:46;12.10;99.90
22838;DHT22;11585;51.450;-0.240;2023-11-21T16:29:14;11.50;99.90
22838;DHT22;11585;51.450;-0.240;2023-11-21T16:31:40;12.10;99.90
22838;DHT22;11585;51.450;-0.240;2023-11-21T16:34:14;12.10;99.90
22838;DHT22;11585;51.450;-0.240;2023-11-21T16:36:44;12.10;99.90
22838;DHT22;11585;51.450;-0.240;2023-11-21T16:39:31;12.10;99.90
22838;DHT22;11585;51.450;-0.240;2023-11-21T16:41:56;12.10;99.90
22838;DHT22;11585;51.450;-0.240;2023-11-21T16:44:22;12.00;99.90
22838;DHT22;11585;51.450;-0.240;2023-11-21T16:46:51;12.40;99.90
22838;DHT22;11585;51.450;-0.240;2023-11-21T16:49:24;12.10;99.90
22838;DHT22;11585;51.450;-0.240;2023-11-21T16:51:52;12.10;99.90
22838;DHT22;11585;51.450;-0.240;2023-11-21T16:54:18;12.00;99.90
22838;DHT22;11585;51.450;-0.240;2023-11-21T16:56:47;12.00;99.90
22838;DHT22;11585;51.450;-0.240;2023-11-21T16:59:15;12.00;99.90
22838;DHT22;11585;51.450;-0.240;2023-11-21T17:01:41;11.90;99.90
22838;DHT22;11585;51.450;-0.240;2023-11-21T17:04:07;12.00;99.90
22838;DHT22;11585;51.450;-0.240;2023-11-21T17:06:40;12.00;99.90
22838;DHT22;11585;51.450;-0.240;2023-11-21T17:09:08;12.00;99.90
22838;DHT22;11585;51.450;-0.240;2023-11-21T17:11:39;12.00;99.90
22838;DHT22;11585;51.450;-0.240;2023-11-21T17:14:08;12.00;99.90
22838;DHT22;11585;51.450;-0.240;2023-11-21T17:16:33;12.00;99.90
22838;DHT22;11585;51.450;-0.240;2023-11-21T17:18:59;11.90;99.90
22838;DHT22;11585;51.450;-0.240;2023-11-21T17:21:25;12.00;99.90
22838;DHT22;11585;51.450;-0.240;2023-11-21T17:23:50;11.90;99.90
22838;DHT22;11585;51.450;-0.240;2023-11-21T17:26:17;12.10;99.90
22838;DHT22;11585;51.450;-0.240;2023-11-21T17:28:45;11.80;99.90
22838;DHT22;11585;51.450;-0.240;2023-11-21T17:31:11;11.90;99.90
22838;DHT22;11585;51.450;-0.240;2023-11-21T17:33:37;11.90;99.90
22838;DHT22;11585;51.450;-0.240;2023-11-21T17:36:06;11.90;99.90
22838;DHT22;11585;51.450;-0.240;2023-11-21T17:41:54;11.80;99.90
22838;DHT22;11585;51.450;-0.240;2023-11-21T17:44:19;11.80;99.90
22838;DHT22;11585;51.450;-0.240;2023-11-21T17:46:45;11.80;99.90
22838;DHT22;11585;51.450;-0.240;2023-11-21T17:49:11;11.80;99.90
22838;DHT22;11585;51.450;-0.240;2023-11-21T22:14:56;11.30;99.90
22838;DHT22;11585;51.450;-0.240;2023-11-21T22:17:22;11.30;99.90
22838;DHT22;11585;51.450;-0.240;2023-11-21T22:19:47;11.20;99.90
22838;DHT22;11585;51.450;-0.240;2023-11-21T22:22:13;11.30;99.90
22838;DHT22;11585;51.450;-0.240;2023-11-21T22:24:39;11.30;99.90
22838;DHT22;11585;51.450;-0.240;2023-11-21T22:27:05;11.30;99.90
22838;DHT22;11585;51.450;-0.240;2023-11-21T22:29:31;11.40;99.90
22838;DHT22;11585;51.450;-0.240;2023-11-21T22:31:56;11.30;99.90
22838;DHT22;11585;51.450;-0.240;2023-11-21T22:34:24;11.30;99.90
22838;DHT22;11585;51.450;-0.240;2023-11-21T22:36:50;11.30;99.90
22838;DHT22;11585;51.450;-0.240;2023-11-21T22:39:15;11.30;99.90
22838;DHT22;11585;51.450;-0.240;2023-11-21T22:41:42;11.30;99.90
22838;DHT22;11585;51.450;-0.240;2023-11-21T22:44:10;11.30;99.90
22838;DHT22;11585;51.450;-0.240;2023-11-21T22:46:43;11.20;99.90
22838;DHT22;11585;51.450;-0.240;2023-11-21T22:49:10;11.20;99.90
22838;DHT22;11585;51.450;-0.240;2023-11-21T22:51:36;11.20;99.90
22838;DHT22;11585;51.450;-0.240;2023-11-21T22:56:49;11.20;99.90
22838;DHT22;11585;51.450;-0.240;2023-11-21T22:59:17;11.20;99.90
22838;DHT22;11585;51.450;-0.240;2023-11-21T23:01:43;11.20;99.90
22838;DHT22;11585;51.450;-0.240;2023-11-21T23:04:11;11.20;99.90
22838;DHT22;11585;51.450;-0.240;2023-11-21T23:06:37;11.10;99.90
22838;DHT22;11585;51.450;-0.240;2023-11-21T23:09:05;11.20;99.90
22838;DHT22;11585;51.450;-0.240;2023-11-21T23:11:31;11.20;99.90
22838;DHT22;11585;51.450;-0.240;2023-11-21T23:13:59;11.70;99.90
22838;DHT22;11585;51.450;-0.240;2023-11-21T23:16:24;11.10;99.90
22838;DHT22;11585;51.450;-0.240;2023-11-21T23:18:50;11.50;99.90
22838;DHT22;11585;51.450;-0.240;2023-11-21T23:21:18;11.40;99.90
22838;DHT22;11585;51.450;-0.240;2023-11-21T23:23:46;11.10;99.90
22838;DHT22;11585;51.450;-0.240;2023-11-21T23:26:15;11.20;99.90
22838;DHT22;11585;51.450;-0.240;2023-11-21T23:28:42;11.20;99.90
22838;DHT22;11585;51.450;-0.240;2023-11-21T23:31:08;11.10;99.90
22838;DHT22;11585;51.450;-0.240;2023-11-21T23:33:34;11.10;99.90
22838;DHT22;11585;51.450;-0.240;2023-11-21T23:36:00;11.20;99.90
22838;DHT22;11585;51.450;-0.240;2023-11-21T23:38:25;11.10;99.90
22838;DHT22;11585;51.450;-0.240;2023-11-21T23:40:51;11.20;99.90
22838;DHT22;11585;51.450;-0.240;2023-11-21T23:43:36;11.10;99.90
22838;DHT22;11585;51.450;-0.240;2023-11-21T23:46:01;11.10;99.90
22838;DHT22;11585;51.450;-0.240;2023-11-21T23:48:27;11.10;99.90
22838;DHT22;11585;51.450;-0.240;2023-11-21T23:50:53;11.20;99.90
22838;DHT22;11585;51.450;-0.240;2023-11-21T23:53:21;11.10;99.90
22838;DHT22;11585;51.450;-0.240;2023-11-21T23:55:47;11.10;99.90
22838;DHT22;11585;51.450;-0.240;2023-11-21T23:58:14;11.10;99.90
